Main page
METAR-TAF:

METAR-TAF

Airports :

Chernivtsi International Airport

Chernivtsi, Ukraine

latitude: 48-15-36N, longitude: 025-58-54E, elevation: 252 m

Current weather observation

The report was made 32 minutes ago, at 06:30 UTC
Calm wind
Temperature 22°C
Humidity 94%
Pressure 1014 hPa
Visibility 10 km or more
no clouds below 1500 m and no cumulonimbus

METAR: UKLN 300630Z 00000MPS CAVOK 22/21 Q1014 R15/09//70 NOSIG

Time: 10:02 (07:02 UTC)

Forecast

The report was made 1 hour and 57 minutes ago, at 05:05 UTC
Forecast valid from 30 at 06 UTC to 30 at 15 UTC
Wind 10 kt from the West/Northwest
Visibility 10 km or more
Broken clouds at a height of 3300 ft
Temporary
from 30 at 06 UTC to 30 at 15 UTC
Wind 10 kt from the West/Southwest

TAF: UKLN 300505Z 3006/3015 29005MPS 9999 BKN033 TX27/3012Z TN21/3006Z TEMPO 3006/3015 25005MPS

Weather observations and forecasts of more than 4000 airports (METAR and TAF reports).

The available stations are represented by yellow and red dots on the map.

Hover mouse over dot to see the name of the station.

Then click to see weather observations and forecasts.

To change the map : click on the green buttons with a black cross to zoom in, on the green button with a dash to zoom out, or on the green arrows for adjacent maps.


METAR-TAF: